sensor_id;sensor_type;location;lat;lon;timestamp;pressure;altitude;pressure_sealevel;temperature;humidity
79465;BME280;68932;47.410;8.232;2023-07-28T00:00:39;96240.30;;;18.45;70.70
79465;BME280;68932;47.410;8.232;2023-07-28T00:03:07;96237.73;;;18.42;70.63
79465;BME280;68932;47.410;8.232;2023-07-28T00:05:37;96235.03;;;18.41;70.63
79465;BME280;68932;47.410;8.232;2023-07-28T00:08:05;96231.69;;;18.39;70.67
79465;BME280;68932;47.410;8.232;2023-07-28T00:10:34;96223.40;;;18.39;70.67
79465;BME280;68932;47.410;8.232;2023-07-28T00:13:07;96222.94;;;18.38;70.83
79465;BME280;68932;47.410;8.232;2023-07-28T00:15:35;96223.23;;;18.37;70.97
79465;BME280;68932;47.410;8.232;2023-07-28T00:18:04;96226.70;;;18.36;71.19
79465;BME280;68932;47.410;8.232;2023-07-28T00:20:32;96232.94;;;18.37;71.17
79465;BME280;68932;47.410;8.232;2023-07-28T00:23:00;96242.52;;;18.41;71.43
79465;BME280;68932;47.410;8.232;2023-07-28T00:25:28;96242.69;;;18.44;71.70
79465;BME280;68932;47.410;8.232;2023-07-28T00:27:57;96245.42;;;18.47;71.76
79465;BME280;68932;47.410;8.232;2023-07-28T00:30:25;96245.55;;;18.49;71.80
79465;BME280;68932;47.410;8.232;2023-07-28T00:32:53;96245.08;;;18.51;71.87
79465;BME280;68932;47.410;8.232;2023-07-28T00:35:21;96248.44;;;18.54;71.98
79465;BME280;68932;47.410;8.232;2023-07-28T00:37:50;96247.63;;;18.57;71.94
79465;BME280;68932;47.410;8.232;2023-07-28T00:40:18;96244.42;;;18.60;71.86
79465;BME280;68932;47.410;8.232;2023-07-28T00:42:46;96237.83;;;18.64;71.85
79465;BME280;68932;47.410;8.232;2023-07-28T00:45:15;96235.67;;;18.66;71.91
79465;BME280;68932;47.410;8.232;2023-07-28T00:47:44;96235.11;;;18.66;71.94
79465;BME280;68932;47.410;8.232;2023-07-28T00:50:13;96236.81;;;18.65;71.89
79465;BME280;68932;47.410;8.232;2023-07-28T00:52:42;96236.90;;;18.66;71.98
79465;BME280;68932;47.410;8.232;2023-07-28T00:55:11;96234.00;;;18.66;71.88
79465;BME280;68932;47.410;8.232;2023-07-28T00:57:39;96233.23;;;18.67;71.96
79465;BME280;68932;47.410;8.232;2023-07-28T01:00:09;96228.67;;;18.66;72.07
79465;BME280;68932;47.410;8.232;2023-07-28T01:02:38;96230.81;;;18.66;72.18
79465;BME280;68932;47.410;8.232;2023-07-28T01:05:08;96228.75;;;18.67;72.24
79465;BME280;68932;47.410;8.232;2023-07-28T01:07:39;96229.34;;;18.70;72.23
79465;BME280;68932;47.410;8.232;2023-07-28T01:10:14;96229.51;;;18.71;72.25
79465;BME280;68932;47.410;8.232;2023-07-28T01:12:44;96228.61;;;18.73;72.24
79465;BME280;68932;47.410;8.232;2023-07-28T01:15:12;96225.94;;;18.75;72.40
79465;BME280;68932;47.410;8.232;2023-07-28T01:17:40;96224.39;;;18.74;72.24
79465;BME280;68932;47.410;8.232;2023-07-28T01:20:10;96232.89;;;18.75;72.16
79465;BME280;68932;47.410;8.232;2023-07-28T01:23:07;96231.12;;;18.73;72.08
79465;BME280;68932;47.410;8.232;2023-07-28T01:25:43;96232.94;;;18.69;72.00
79465;BME280;68932;47.410;8.232;2023-07-28T01:28:15;96230.57;;;18.68;71.95
79465;BME280;68932;47.410;8.232;2023-07-28T01:30:43;96235.89;;;18.68;72.08
79465;BME280;68932;47.410;8.232;2023-07-28T01:33:12;96236.10;;;18.67;72.14
79465;BME280;68932;47.410;8.232;2023-07-28T01:35:40;96231.25;;;18.65;72.21
79465;BME280;68932;47.410;8.232;2023-07-28T01:38:08;96230.31;;;18.66;72.34
79465;BME280;68932;47.410;8.232;2023-07-28T01:40:37;96231.91;;;18.66;72.33
79465;BME280;68932;47.410;8.232;2023-07-28T01:43:05;96233.67;;;18.66;72.37
79465;BME280;68932;47.410;8.232;2023-07-28T01:45:33;96233.90;;;18.67;72.52
79465;BME280;68932;47.410;8.232;2023-07-28T01:48:02;96234.50;;;18.68;72.51
79465;BME280;68932;47.410;8.232;2023-07-28T01:50:30;96239.40;;;18.67;72.41
79465;BME280;68932;47.410;8.232;2023-07-28T01:52:59;96237.27;;;18.67;72.58
79465;BME280;68932;47.410;8.232;2023-07-28T01:55:28;96243.31;;;18.69;72.61
79465;BME280;68932;47.410;8.232;2023-07-28T01:57:59;96249.84;;;18.69;72.51
79465;BME280;68932;47.410;8.232;2023-07-28T02:00:28;96254.17;;;18.67;72.57
79465;BME280;68932;47.410;8.232;2023-07-28T02:02:56;96254.55;;;18.62;72.70
79465;BME280;68932;47.410;8.232;2023-07-28T02:05:24;96254.70;;;18.59;72.87
79465;BME280;68932;47.410;8.232;2023-07-28T02:07:52;96256.67;;;18.55;72.82
79465;BME280;68932;47.410;8.232;2023-07-28T02:10:21;96256.18;;;18.53;73.00
79465;BME280;68932;47.410;8.232;2023-07-28T02:12:50;96252.86;;;18.50;72.84
79465;BME280;68932;47.410;8.232;2023-07-28T02:15:18;96257.21;;;18.47;72.93
79465;BME280;68932;47.410;8.232;2023-07-28T02:17:47;96267.19;;;18.42;73.04
79465;BME280;68932;47.410;8.232;2023-07-28T02:20:15;96264.34;;;18.35;73.01
79465;BME280;68932;47.410;8.232;2023-07-28T02:22:44;96269.73;;;18.31;73.08
79465;BME280;68932;47.410;8.232;2023-07-28T02:25:12;96276.02;;;18.27;73.11
79465;BME280;68932;47.410;8.232;2023-07-28T02:27:41;96278.86;;;18.21;73.31
79465;BME280;68932;47.410;8.232;2023-07-28T02:30:10;96285.52;;;18.17;73.49
79465;BME280;68932;47.410;8.232;2023-07-28T02:32:38;96297.08;;;18.13;73.54
79465;BME280;68932;47.410;8.232;2023-07-28T02:35:08;96297.33;;;18.09;73.58
79465;BME280;68932;47.410;8.232;2023-07-28T02:37:36;96305.34;;;18.06;73.66
79465;BME280;68932;47.410;8.232;2023-07-28T02:40:06;96316.65;;;18.03;73.57
79465;BME280;68932;47.410;8.232;2023-07-28T02:42:34;96314.33;;;18.00;73.69
79465;BME280;68932;47.410;8.232;2023-07-28T02:45:02;96318.36;;;17.95;73.67
79465;BME280;68932;47.410;8.232;2023-07-28T02:47:31;96318.45;;;17.91;73.60
79465;BME280;68932;47.410;8.232;2023-07-28T02:49:59;96318.45;;;17.89;73.78
79465;BME280;68932;47.410;8.232;2023-07-28T02:52:27;96318.86;;;17.89;73.73
79465;BME280;68932;47.410;8.232;2023-07-28T02:54:56;96321.41;;;17.88;73.91
79465;BME280;68932;47.410;8.232;2023-07-28T02:57:25;96323.94;;;17.86;73.80
79465;BME280;68932;47.410;8.232;2023-07-28T02:59:53;96330.84;;;17.84;73.95
79465;BME280;68932;47.410;8.232;2023-07-28T03:02:21;96332.66;;;17.82;74.09
79465;BME280;68932;47.410;8.232;2023-07-28T03:04:50;96328.64;;;17.81;74.00
79465;BME280;68932;47.410;8.232;2023-07-28T03:07:18;96326.44;;;17.80;74.14
79465;BME280;68932;47.410;8.232;2023-07-28T03:09:46;96331.02;;;17.79;74.11
79465;BME280;68932;47.410;8.232;2023-07-28T03:12:14;96328.70;;;17.77;74.04
79465;BME280;68932;47.410;8.232;2023-07-28T03:14:43;96331.64;;;17.76;74.11
79465;BME280;68932;47.410;8.232;2023-07-28T03:17:11;96333.70;;;17.74;74.22
79465;BME280;68932;47.410;8.232;2023-07-28T03:19:39;96335.70;;;17.73;74.12
79465;BME280;68932;47.410;8.232;2023-07-28T03:22:07;96335.05;;;17.72;74.07
79465;BME280;68932;47.410;8.232;2023-07-28T03:24:35;96338.51;;;17.72;74.02
79465;BME280;68932;47.410;8.232;2023-07-28T03:27:05;96343.66;;;17.70;74.06
79465;BME280;68932;47.410;8.232;2023-07-28T03:29:33;96342.39;;;17.68;74.10
79465;BME280;68932;47.410;8.232;2023-07-28T03:32:01;96340.23;;;17.66;74.03
79465;BME280;68932;47.410;8.232;2023-07-28T03:34:30;96341.08;;;17.64;74.08
79465;BME280;68932;47.410;8.232;2023-07-28T03:36:58;96339.84;;;17.63;74.09
79465;BME280;68932;47.410;8.232;2023-07-28T03:39:26;96339.15;;;17.61;74.12
79465;BME280;68932;47.410;8.232;2023-07-28T03:41:55;96343.98;;;17.58;74.14
79465;BME280;68932;47.410;8.232;2023-07-28T03:44:23;96346.82;;;17.56;73.99
79465;BME280;68932;47.410;8.232;2023-07-28T03:46:51;96338.64;;;17.53;74.16
79465;BME280;68932;47.410;8.232;2023-07-28T03:49:19;96333.25;;;17.51;74.14
79465;BME280;68932;47.410;8.232;2023-07-28T03:51:48;96330.52;;;17.48;74.42
79465;BME280;68932;47.410;8.232;2023-07-28T03:54:16;96328.34;;;17.45;74.54
79465;BME280;68932;47.410;8.232;2023-07-28T03:56:44;96326.81;;;17.43;74.58
79465;BME280;68932;47.410;8.232;2023-07-28T03:59:12;96327.37;;;17.41;74.65
79465;BME280;68932;47.410;8.232;2023-07-28T04:01:41;96331.91;;;17.40;74.60
79465;BME280;68932;47.410;8.232;2023-07-28T04:04:09;96336.85;;;17.38;74.64
79465;BME280;68932;47.410;8.232;2023-07-28T04:06:45;96336.35;;;17.36;74.89
79465;BME280;68932;47.410;8.232;2023-07-28T04:09:14;96337.17;;;17.35;74.87
79465;BME280;68932;47.410;8.232;2023-07-28T04:11:43;96337.20;;;17.33;75.03
79465;BME280;68932;47.410;8.232;2023-07-28T04:14:11;96340.58;;;17.31;75.04
79465;BME280;68932;47.410;8.232;2023-07-28T04:16:40;96346.48;;;17.29;75.25
79465;BME280;68932;47.410;8.232;2023-07-28T04:19:08;96347.94;;;17.25;75.35
79465;BME280;68932;47.410;8.232;2023-07-28T04:21:36;96343.07;;;17.25;75.35
79465;BME280;68932;47.410;8.232;2023-07-28T04:24:05;96341.25;;;17.27;75.35
79465;BME280;68932;47.410;8.232;2023-07-28T04:26:33;96338.86;;;17.29;75.24
79465;BME280;68932;47.410;8.232;2023-07-28T04:29:02;96339.41;;;17.31;75.22
79465;BME280;68932;47.410;8.232;2023-07-28T04:31:30;96337.88;;;17.30;75.21
79465;BME280;68932;47.410;8.232;2023-07-28T04:33:58;96338.23;;;17.30;75.35
79465;BME280;68932;47.410;8.232;2023-07-28T04:36:27;96334.41;;;17.28;75.36
79465;BME280;68932;47.410;8.232;2023-07-28T04:38:55;96339.33;;;17.28;75.47
79465;BME280;68932;47.410;8.232;2023-07-28T04:41:23;96338.64;;;17.30;75.45
79465;BME280;68932;47.410;8.232;2023-07-28T04:43:51;96334.80;;;17.32;75.36
79465;BME280;68932;47.410;8.232;2023-07-28T04:46:20;96340.44;;;17.38;75.26
79465;BME280;68932;47.410;8.232;2023-07-28T04:48:48;96346.98;;;17.40;75.40
79465;BME280;68932;47.410;8.232;2023-07-28T04:51:17;96352.08;;;17.40;75.47
79465;BME280;68932;47.410;8.232;2023-07-28T04:53:45;96358.40;;;17.44;75.54
79465;BME280;68932;47.410;8.232;2023-07-28T04:56:13;96358.79;;;17.49;75.46
79465;BME280;68932;47.410;8.232;2023-07-28T04:58:41;96362.70;;;17.53;75.39
79465;BME280;68932;47.410;8.232;2023-07-28T05:01:10;96362.22;;;17.58;75.26
79465;BME280;68932;47.410;8.232;2023-07-28T05:03:38;96364.23;;;17.65;75.06
79465;BME280;68932;47.410;8.232;2023-07-28T05:06:07;96367.61;;;17.73;74.82
79465;BME280;68932;47.410;8.232;2023-07-28T05:08:35;96363.23;;;17.81;74.61
79465;BME280;68932;47.410;8.232;2023-07-28T05:11:03;96361.30;;;17.88;74.53
79465;BME280;68932;47.410;8.232;2023-07-28T05:13:32;96359.75;;;17.94;74.30
79465;BME280;68932;47.410;8.232;2023-07-28T05:16:00;96362.56;;;18.03;74.26
79465;BME280;68932;47.410;8.232;2023-07-28T05:18:28;96369.54;;;18.11;74.14
79465;BME280;68932;47.410;8.232;2023-07-28T05:20:56;96369.52;;;18.18;73.79
79465;BME280;68932;47.410;8.232;2023-07-28T05:23:24;96373.86;;;18.24;73.55
79465;BME280;68932;47.410;8.232;2023-07-28T05:25:53;96368.05;;;18.30;73.42
79465;BME280;68932;47.410;8.232;2023-07-28T05:28:21;96366.02;;;18.37;73.26
79465;BME280;68932;47.410;8.232;2023-07-28T05:30:49;96367.40;;;18.44;72.54
79465;BME280;68932;47.410;8.232;2023-07-28T05:33:17;96370.52;;;18.50;72.53
79465;BME280;68932;47.410;8.232;2023-07-28T05:35:46;96369.40;;;18.57;72.72
79465;BME280;68932;47.410;8.232;2023-07-28T05:38:14;96370.77;;;18.65;72.58
79465;BME280;68932;47.410;8.232;2023-07-28T05:40:42;96369.17;;;18.74;72.03
79465;BME280;68932;47.410;8.232;2023-07-28T05:43:10;96372.41;;;18.82;71.72
79465;BME280;68932;47.410;8.232;2023-07-28T05:45:39;96378.78;;;18.90;71.74
79465;BME280;68932;47.410;8.232;2023-07-28T05:48:13;96379.05;;;18.98;71.40
79465;BME280;68932;47.410;8.232;2023-07-28T05:50:41;96375.17;;;18.99;70.91
79465;BME280;68932;47.410;8.232;2023-07-28T05:53:10;96377.60;;;19.01;70.68
79465;BME280;68932;47.410;8.232;2023-07-28T05:55:38;96377.55;;;19.08;70.51
79465;BME280;68932;47.410;8.232;2023-07-28T05:58:06;96368.52;;;19.14;70.13
79465;BME280;68932;47.410;8.232;2023-07-28T06:00:35;96370.11;;;19.21;70.07
79465;BME280;68932;47.410;8.232;2023-07-28T06:03:03;96379.98;;;19.28;70.07
79465;BME280;68932;47.410;8.232;2023-07-28T06:05:31;96381.58;;;19.31;69.81
79465;BME280;68932;47.410;8.232;2023-07-28T06:07:59;96384.17;;;19.35;69.83
79465;BME280;68932;47.410;8.232;2023-07-28T06:10:28;96384.80;;;19.41;69.86
79465;BME280;68932;47.410;8.232;2023-07-28T06:12:56;96388.67;;;19.47;69.99
79465;BME280;68932;47.410;8.232;2023-07-28T06:15:24;96395.64;;;19.55;69.66
79465;BME280;68932;47.410;8.232;2023-07-28T06:17:53;96403.40;;;19.59;69.13
79465;BME280;68932;47.410;8.232;2023-07-28T06:20:21;96407.36;;;19.60;69.35
79465;BME280;68932;47.410;8.232;2023-07-28T06:22:49;96408.47;;;19.66;69.48
79465;BME280;68932;47.410;8.232;2023-07-28T06:25:18;96402.77;;;19.69;69.05
79465;BME280;68932;47.410;8.232;2023-07-28T06:27:46;96407.17;;;19.69;69.19
79465;BME280;68932;47.410;8.232;2023-07-28T06:30:14;96399.36;;;19.71;69.55
79465;BME280;68932;47.410;8.232;2023-07-28T06:32:42;96404.16;;;19.73;69.25
79465;BME280;68932;47.410;8.232;2023-07-28T06:35:11;96405.73;;;19.79;69.16
79465;BME280;68932;47.410;8.232;2023-07-28T06:37:39;96401.14;;;19.90;68.85
79465;BME280;68932;47.410;8.232;2023-07-28T06:40:09;96400.60;;;20.01;68.69
79465;BME280;68932;47.410;8.232;2023-07-28T06:42:37;96403.15;;;20.18;68.45
79465;BME280;68932;47.410;8.232;2023-07-28T06:45:07;96401.90;;;20.34;68.09
79465;BME280;68932;47.410;8.232;2023-07-28T06:47:35;96408.10;;;20.45;67.80
79465;BME280;68932;47.410;8.232;2023-07-28T06:50:05;96409.53;;;20.55;67.53
79465;BME280;68932;47.410;8.232;2023-07-28T06:52:33;96412.09;;;20.66;66.92
79465;BME280;68932;47.410;8.232;2023-07-28T06:55:01;96411.45;;;20.71;66.66
79465;BME280;68932;47.410;8.232;2023-07-28T06:57:30;96410.27;;;20.77;66.75
79465;BME280;68932;47.410;8.232;2023-07-28T06:59:58;96410.73;;;20.87;66.37
79465;BME280;68932;47.410;8.232;2023-07-28T07:02:27;96408.18;;;20.92;65.61
79465;BME280;68932;47.410;8.232;2023-07-28T07:04:55;96412.83;;;20.92;65.43
79465;BME280;68932;47.410;8.232;2023-07-28T07:07:23;96414.52;;;20.91;65.19
79465;BME280;68932;47.410;8.232;2023-07-28T07:09:51;96411.77;;;20.95;65.47
79465;BME280;68932;47.410;8.232;2023-07-28T07:12:20;96412.73;;;21.04;65.24
79465;BME280;68932;47.410;8.232;2023-07-28T07:14:48;96413.13;;;21.05;64.73
79465;BME280;68932;47.410;8.232;2023-07-28T07:17:17;96413.05;;;21.08;64.74
79465;BME280;68932;47.410;8.232;2023-07-28T07:19:45;96410.40;;;21.14;64.72
79465;BME280;68932;47.410;8.232;2023-07-28T07:22:13;96414.75;;;21.23;64.80
79465;BME280;68932;47.410;8.232;2023-07-28T07:24:42;96409.60;;;21.32;64.79
79465;BME280;68932;47.410;8.232;2023-07-28T07:27:10;96409.39;;;21.44;64.50
79465;BME280;68932;47.410;8.232;2023-07-28T07:29:39;96409.66;;;21.57;64.10
79465;BME280;68932;47.410;8.232;2023-07-28T07:32:08;96408.66;;;21.70;63.44
79465;BME280;68932;47.410;8.232;2023-07-28T07:34:37;96409.38;;;21.80;62.85
79465;BME280;68932;47.410;8.232;2023-07-28T07:37:05;96412.83;;;21.91;62.72
79465;BME280;68932;47.410;8.232;2023-07-28T07:39:34;96421.36;;;22.02;62.41
79465;BME280;68932;47.410;8.232;2023-07-28T07:42:02;96419.52;;;22.10;62.20
79465;BME280;68932;47.410;8.232;2023-07-28T07:44:31;96417.58;;;22.12;62.07
79465;BME280;68932;47.410;8.232;2023-07-28T07:47:01;96419.55;;;22.17;62.21
79465;BME280;68932;47.410;8.232;2023-07-28T07:49:39;96423.55;;;22.25;62.11
79465;BME280;68932;47.410;8.232;2023-07-28T07:52:08;96423.77;;;22.35;61.57
79465;BME280;68932;47.410;8.232;2023-07-28T07:54:37;96423.49;;;22.48;62.21
79465;BME280;68932;47.410;8.232;2023-07-28T07:57:06;96420.53;;;22.56;61.53
79465;BME280;68932;47.410;8.232;2023-07-28T07:59:34;96425.71;;;22.61;60.81
79465;BME280;68932;47.410;8.232;2023-07-28T08:02:03;96419.77;;;22.66;60.38
79465;BME280;68932;47.410;8.232;2023-07-28T08:04:32;96415.95;;;22.71;60.18
79465;BME280;68932;47.410;8.232;2023-07-28T08:07:00;96420.27;;;22.78;60.05
79465;BME280;68932;47.410;8.232;2023-07-28T08:09:28;96417.30;;;22.86;60.12
79465;BME280;68932;47.410;8.232;2023-07-28T08:11:57;96412.23;;;22.97;60.10
79465;BME280;68932;47.410;8.232;2023-07-28T08:14:25;96415.94;;;23.07;59.49
79465;BME280;68932;47.410;8.232;2023-07-28T08:16:53;96416.75;;;23.16;59.25
79465;BME280;68932;47.410;8.232;2023-07-28T08:19:22;96415.35;;;23.20;59.36
79465;BME280;68932;47.410;8.232;2023-07-28T08:21:50;96416.40;;;23.29;59.58
79465;BME280;68932;47.410;8.232;2023-07-28T08:24:19;96416.15;;;23.39;58.89
79465;BME280;68932;47.410;8.232;2023-07-28T08:26:47;96418.26;;;23.51;59.13
79465;BME280;68932;47.410;8.232;2023-07-28T08:29:16;96418.27;;;23.68;58.81
79465;BME280;68932;47.410;8.232;2023-07-28T08:31:44;96417.67;;;23.82;58.25
79465;BME280;68932;47.410;8.232;2023-07-28T08:34:12;96411.58;;;23.89;56.90
79465;BME280;68932;47.410;8.232;2023-07-28T08:36:41;96410.85;;;23.93;56.65
79465;BME280;68932;47.410;8.232;2023-07-28T08:39:09;96413.18;;;23.95;56.40
79465;BME280;68932;47.410;8.232;2023-07-28T08:41:37;96408.40;;;23.99;56.92
79465;BME280;68932;47.410;8.232;2023-07-28T08:44:06;96406.86;;;24.04;57.07
79465;BME280;68932;47.410;8.232;2023-07-28T08:46:35;96408.89;;;24.07;56.57
79465;BME280;68932;47.410;8.232;2023-07-28T08:49:03;96408.40;;;24.10;55.97
79465;BME280;68932;47.410;8.232;2023-07-28T08:51:31;96408.41;;;24.12;55.69
79465;BME280;68932;47.410;8.232;2023-07-28T08:54:00;96401.89;;;24.16;55.26
79465;BME280;68932;47.410;8.232;2023-07-28T08:56:28;96404.20;;;24.21;55.28
79465;BME280;68932;47.410;8.232;2023-07-28T08:59:00;96405.38;;;24.28;55.27
79465;BME280;68932;47.410;8.232;2023-07-28T09:01:28;96400.93;;;24.38;54.95
79465;BME280;68932;47.410;8.232;2023-07-28T09:03:56;96393.44;;;24.50;55.15
79465;BME280;68932;47.410;8.232;2023-07-28T09:06:30;96398.20;;;24.67;55.24
79465;BME280;68932;47.410;8.232;2023-07-28T09:08:59;96399.91;;;24.80;54.56
79465;BME280;68932;47.410;8.232;2023-07-28T09:11:27;96395.88;;;24.95;54.40
79465;BME280;68932;47.410;8.232;2023-07-28T09:13:55;96403.08;;;25.11;53.71
79465;BME280;68932;47.410;8.232;2023-07-28T09:16:24;96398.89;;;25.23;52.99
79465;BME280;68932;47.410;8.232;2023-07-28T09:18:52;96399.66;;;25.34;52.68
79465;BME280;68932;47.410;8.232;2023-07-28T09:21:31;96401.98;;;25.43;53.69
79465;BME280;68932;47.410;8.232;2023-07-28T09:24:01;96398.90;;;25.50;52.46
79465;BME280;68932;47.410;8.232;2023-07-28T09:26:39;96396.13;;;25.52;51.60
79465;BME280;68932;47.410;8.232;2023-07-28T09:29:16;96400.73;;;25.45;50.70
79465;BME280;68932;47.410;8.232;2023-07-28T09:31:45;96397.95;;;25.43;50.40
79465;BME280;68932;47.410;8.232;2023-07-28T09:34:23;96402.51;;;25.46;50.12
79465;BME280;68932;47.410;8.232;2023-07-28T09:36:51;96398.38;;;25.49;49.53
79465;BME280;68932;47.410;8.232;2023-07-28T09:39:20;96396.13;;;25.54;49.89
79465;BME280;68932;47.410;8.232;2023-07-28T09:41:49;96396.74;;;25.59;49.50
79465;BME280;68932;47.410;8.232;2023-07-28T09:44:18;96383.77;;;25.62;49.37
79465;BME280;68932;47.410;8.232;2023-07-28T09:46:50;96390.61;;;25.59;49.27
79465;BME280;68932;47.410;8.232;2023-07-28T09:49:22;96387.79;;;25.62;49.57
79465;BME280;68932;47.410;8.232;2023-07-28T09:51:57;96385.65;;;25.68;49.01
79465;BME280;68932;47.410;8.232;2023-07-28T09:54:29;96385.90;;;25.72;48.90
79465;BME280;68932;47.410;8.232;2023-07-28T09:56:58;96387.63;;;25.76;49.14
79465;BME280;68932;47.410;8.232;2023-07-28T09:59:31;96381.86;;;25.81;48.64
79465;BME280;68932;47.410;8.232;2023-07-28T10:02:01;96385.31;;;25.84;48.37
79465;BME280;68932;47.410;8.232;2023-07-28T10:04:30;96381.13;;;25.88;48.33
79465;BME280;68932;47.410;8.232;2023-07-28T10:06:59;96385.98;;;25.92;48.46
79465;BME280;68932;47.410;8.232;2023-07-28T10:09:29;96379.55;;;25.95;48.31
79465;BME280;68932;47.410;8.232;2023-07-28T10:11:58;96385.73;;;26.00;48.36
79465;BME280;68932;47.410;8.232;2023-07-28T10:14:31;96382.56;;;26.03;47.83
79465;BME280;68932;47.410;8.232;2023-07-28T10:17:02;96379.52;;;26.08;47.96
79465;BME280;68932;47.410;8.232;2023-07-28T10:19:31;96379.41;;;26.14;46.82
79465;BME280;68932;47.410;8.232;2023-07-28T10:22:02;96376.14;;;26.21;47.47
79465;BME280;68932;47.410;8.232;2023-07-28T10:24:51;96377.64;;;26.29;47.33
79465;BME280;68932;47.410;8.232;2023-07-28T10:27:31;96376.20;;;26.35;46.92
79465;BME280;68932;47.410;8.232;2023-07-28T10:30:01;96374.60;;;26.36;46.63
79465;BME280;68932;47.410;8.232;2023-07-28T10:32:34;96376.27;;;26.34;46.40
79465;BME280;68932;47.410;8.232;2023-07-28T10:35:08;96377.44;;;26.35;46.70
79465;BME280;68932;47.410;8.232;2023-07-28T10:37:37;96370.23;;;26.37;47.33
79465;BME280;68932;47.410;8.232;2023-07-28T10:40:25;96378.69;;;26.41;47.20
79465;BME280;68932;47.410;8.232;2023-07-28T10:42:55;96374.70;;;26.48;47.73
79465;BME280;68932;47.410;8.232;2023-07-28T10:45:25;96376.22;;;26.54;48.00
79465;BME280;68932;47.410;8.232;2023-07-28T10:47:55;96380.22;;;26.57;48.03
79465;BME280;68932;47.410;8.232;2023-07-28T10:50:24;96379.85;;;26.56;47.98
79465;BME280;68932;47.410;8.232;2023-07-28T10:52:52;96379.95;;;26.53;47.98
79465;BME280;68932;47.410;8.232;2023-07-28T10:55:22;96379.39;;;26.48;47.60
79465;BME280;68932;47.410;8.232;2023-07-28T10:57:52;96378.67;;;26.44;48.14
79465;BME280;68932;47.410;8.232;2023-07-28T11:00:22;96379.27;;;26.42;48.35
79465;BME280;68932;47.410;8.232;2023-07-28T11:02:52;96380.85;;;26.40;47.88
79465;BME280;68932;47.410;8.232;2023-07-28T11:05:23;96377.36;;;26.35;48.25
79465;BME280;68932;47.410;8.232;2023-07-28T11:07:54;96375.25;;;26.34;49.05
79465;BME280;68932;47.410;8.232;2023-07-28T11:10:23;96376.59;;;26.30;48.68
79465;BME280;68932;47.410;8.232;2023-07-28T11:12:53;96376.95;;;26.25;48.83
79465;BME280;68932;47.410;8.232;2023-07-28T11:15:21;96370.97;;;26.19;48.71
79465;BME280;68932;47.410;8.232;2023-07-28T11:17:51;96372.68;;;26.13;48.28
79465;BME280;68932;47.410;8.232;2023-07-28T11:20:20;96374.70;;;26.08;48.72
79465;BME280;68932;47.410;8.232;2023-07-28T11:22:55;96377.53;;;26.04;48.98
79465;BME280;68932;47.410;8.232;2023-07-28T11:25:25;96380.17;;;26.00;48.79
79465;BME280;68932;47.410;8.232;2023-07-28T11:27:54;96377.16;;;25.94;49.30
79465;BME280;68932;47.410;8.232;2023-07-28T11:30:23;96379.73;;;25.91;49.55
79465;BME280;68932;47.410;8.232;2023-07-28T11:32:53;96378.46;;;25.88;49.51
79465;BME280;68932;47.410;8.232;2023-07-28T11:35:22;96375.17;;;25.86;49.71
79465;BME280;68932;47.410;8.232;2023-07-28T11:37:52;96368.90;;;25.87;49.62
79465;BME280;68932;47.410;8.232;2023-07-28T11:40:22;96370.65;;;25.92;49.82
79465;BME280;68932;47.410;8.232;2023-07-28T11:42:52;96373.42;;;25.97;49.14
79465;BME280;68932;47.410;8.232;2023-07-28T11:45:21;96374.48;;;26.04;49.22
79465;BME280;68932;47.410;8.232;2023-07-28T11:48:00;96373.95;;;26.11;49.02
79465;BME280;68932;47.410;8.232;2023-07-28T11:50:30;96369.92;;;26.19;48.62
79465;BME280;68932;47.410;8.232;2023-07-28T11:53:02;96377.07;;;26.25;48.34
79465;BME280;68932;47.410;8.232;2023-07-28T11:55:30;96378.90;;;26.33;48.78
79465;BME280;68932;47.410;8.232;2023-07-28T11:57:59;96381.20;;;26.36;48.61
79465;BME280;68932;47.410;8.232;2023-07-28T12:00:32;96381.96;;;26.25;48.40
79465;BME280;68932;47.410;8.232;2023-07-28T12:03:06;96382.14;;;26.15;48.72
79465;BME280;68932;47.410;8.232;2023-07-28T12:05:34;96379.61;;;26.07;49.08
79465;BME280;68932;47.410;8.232;2023-07-28T12:08:03;96374.45;;;25.98;49.54
79465;BME280;68932;47.410;8.232;2023-07-28T12:10:32;96379.02;;;25.87;50.02
79465;BME280;68932;47.410;8.232;2023-07-28T12:13:05;96377.66;;;25.72;50.05
79465;BME280;68932;47.410;8.232;2023-07-28T12:15:34;96376.20;;;25.59;50.54
79465;BME280;68932;47.410;8.232;2023-07-28T12:18:10;96386.20;;;25.46;51.23
79465;BME280;68932;47.410;8.232;2023-07-28T12:20:40;96381.11;;;25.37;51.51
79465;BME280;68932;47.410;8.232;2023-07-28T12:23:09;96382.11;;;25.34;51.97
79465;BME280;68932;47.410;8.232;2023-07-28T12:25:38;96385.46;;;25.37;52.53
79465;BME280;68932;47.410;8.232;2023-07-28T12:28:07;96378.56;;;25.53;53.13
79465;BME280;68932;47.410;8.232;2023-07-28T12:30:35;96380.14;;;25.71;52.83
79465;BME280;68932;47.410;8.232;2023-07-28T12:33:04;96382.56;;;25.78;52.53
79465;BME280;68932;47.410;8.232;2023-07-28T12:35:33;96384.86;;;25.86;52.35
79465;BME280;68932;47.410;8.232;2023-07-28T12:38:03;96379.02;;;25.93;52.31
79465;BME280;68932;47.410;8.232;2023-07-28T12:40:32;96378.55;;;26.01;51.93
79465;BME280;68932;47.410;8.232;2023-07-28T12:43:02;96372.30;;;26.00;51.55
79465;BME280;68932;47.410;8.232;2023-07-28T12:45:31;96379.80;;;25.97;51.45
79465;BME280;68932;47.410;8.232;2023-07-28T12:47:59;96381.34;;;25.97;51.62
79465;BME280;68932;47.410;8.232;2023-07-28T12:50:28;96383.38;;;25.95;51.90
79465;BME280;68932;47.410;8.232;2023-07-28T12:52:56;96381.80;;;25.90;52.37
79465;BME280;68932;47.410;8.232;2023-07-28T12:55:24;96381.26;;;25.89;52.48
79465;BME280;68932;47.410;8.232;2023-07-28T12:57:52;96377.00;;;25.83;52.44
79465;BME280;68932;47.410;8.232;2023-07-28T13:00:21;96374.56;;;25.80;52.20
79465;BME280;68932;47.410;8.232;2023-07-28T13:02:49;96374.20;;;25.76;52.44
79465;BME280;68932;47.410;8.232;2023-07-28T13:05:17;96371.48;;;25.70;51.95
79465;BME280;68932;47.410;8.232;2023-07-28T13:07:45;96372.17;;;25.64;52.37
79465;BME280;68932;47.410;8.232;2023-07-28T13:10:14;96373.45;;;25.66;53.41